Time;durP1;ratioP1;P1;durP2;ratioP2;P2;SDS_P1;SDS_P2;PMS_P1;PMS_P2;Temp;Humidity;BMP_temperature;BMP_pressure;BME280_temperature;BME280_humidity;BME280_pressure;Samples;Min_cycle;Max_cycle;Signal;HPM_P1;HPM_P2
2022/02/19 00:00:11;;;;;;;10.17;3.17;;;4.60;99.90;;;;;;5078527;28;20995;-61
2022/02/19 00:02:38;;;;;;;9.07;3.30;;;4.60;99.90;;;;;;5077735;28;20466;-62
2022/02/19 00:05:06;;;;;;;15.00;3.43;;;4.50;99.90;;;;;;5077909;28;20815;-61
2022/02/19 00:07:36;;;;;;;12.03;3.30;;;4.60;9.70;;;;;;5078137;28;20810;-62
2022/02/19 00:10:03;;;;;;;10.10;3.07;;;4.50;7.10;;;;;;5058668;28;20512;-61
2022/02/19 00:12:30;;;;;;;10.60;2.83;;;4.50;1.00;;;;;;5077316;28;20465;-61
2022/02/19 00:15:00;;;;;;;11.63;3.17;;;4.50;1.00;;;;;;5078169;28;20609;-61
2022/02/19 00:17:28;;;;;;;10.10;3.17;;;4.50;1.00;;;;;;5078176;28;20970;-61
2022/02/19 00:19:55;;;;;;;7.20;3.00;;;4.60;1.00;;;;;;5078352;28;20461;-62
2022/02/19 00:22:23;;;;;;;8.27;3.00;;;4.50;1.00;;;;;;5077457;28;20530;-62
2022/02/19 00:24:51;;;;;;;9.87;2.70;;;4.60;1.00;;;;;;5078377;28;20472;-61
2022/02/19 00:27:24;;;;;;;9.33;3.30;;;4.50;1.00;;;;;;5077313;28;20461;-61
2022/02/19 00:29:51;;;;;;;8.83;3.40;;;4.60;1.00;;;;;;5078430;28;20582;-61
2022/02/19 00:32:18;;;;;;;6.37;2.50;;;4.60;1.00;;;;;;5078407;28;20478;-61
2022/02/19 00:34:45;;;;;;;9.73;3.47;;;4.60;1.00;;;;;;5077660;28;20470;-61
2022/02/19 00:37:12;;;;;;;8.80;2.70;;;4.70;1.00;;;;;;5076623;28;20523;-62
2022/02/19 00:39:39;;;;;;;6.67;2.47;;;4.70;1.00;;;;;;5077770;28;20598;-61
2022/02/19 00:42:08;;;;;;;8.10;2.73;;;4.70;1.00;;;;;;5077019;28;20461;-62
2022/02/19 00:44:36;;;;;;;9.57;2.87;;;4.80;1.00;;;;;;5077643;28;20443;-61
2022/02/19 00:47:05;;;;;;;9.63;2.90;;;4.80;1.00;;;;;;5076868;28;20516;-61
2022/02/19 00:49:32;;;;;;;8.73;3.00;;;4.80;1.00;;;;;;5077385;28;20464;-63
2022/02/19 00:52:00;;;;;;;9.30;2.80;;;4.80;1.00;;;;;;5077255;28;20531;-62
2022/02/19 00:54:27;;;;;;;10.57;3.50;;;4.90;1.00;;;;;;5077800;28;20894;-61
2022/02/19 00:56:54;;;;;;;7.10;2.80;;;4.80;1.00;;;;;;5076659;28;20465;-62
2022/02/19 00:59:22;;;;;;;7.30;2.73;;;4.80;1.00;;;;;;5077174;28;20505;-63
2022/02/19 01:01:51;;;;;;;5.80;3.10;;;4.80;1.00;;;;;;5077373;28;20462;-62
2022/02/19 01:04:18;;;;;;;6.77;2.93;;;4.80;1.00;;;;;;5077721;28;20543;-60
2022/02/19 01:06:45;;;;;;;8.20;2.77;;;4.90;1.00;;;;;;5077421;28;20518;-61
2022/02/19 01:09:13;;;;;;;8.07;2.93;;;4.90;1.00;;;;;;5076612;28;20755;-62
2022/02/19 01:11:40;;;;;;;8.20;3.00;;;4.90;1.00;;;;;;5077152;28;20461;-62
2022/02/19 01:14:07;;;;;;;10.97;3.63;;;4.90;1.00;;;;;;5077239;28;20461;-61
2022/02/19 01:16:36;;;;;;;9.03;3.43;;;5.00;1.00;;;;;;5077146;28;20809;-62
2022/02/19 01:19:04;;;;;;;10.10;2.73;;;4.90;1.00;;;;;;5076070;28;20489;-62
2022/02/19 01:21:31;;;;;;;11.53;3.00;;;4.90;1.00;;;;;;5075877;28;20440;-61
2022/02/19 01:23:58;;;;;;;7.33;3.87;;;4.90;1.00;;;;;;5076800;28;20472;-63
2022/02/19 01:26:27;;;;;;;12.83;3.93;;;4.90;1.00;;;;;;5077033;28;20440;-62
2022/02/19 01:28:54;;;;;;;12.03;3.30;;;4.90;1.00;;;;;;5076045;28;20468;-61
2022/02/19 01:31:21;;;;;;;13.63;4.90;;;4.90;1.00;;;;;;5077024;28;20534;-63
2022/02/19 01:33:50;;;;;;;15.27;3.77;;;4.90;1.00;;;;;;5078225;28;20484;-61
2022/02/19 01:36:17;;;;;;;9.67;3.50;;;4.90;1.00;;;;;;5081368;28;20507;-60
2022/02/19 01:38:44;;;;;;;10.50;3.10;;;4.90;1.00;;;;;;5080254;28;20488;-62
2022/02/19 01:41:11;;;;;;;13.53;3.80;;;4.90;1.00;;;;;;5080875;28;20522;-60
2022/02/19 01:43:38;;;;;;;6.43;2.70;;;4.90;1.00;;;;;;5080416;28;20890;-63
2022/02/19 01:46:05;;;;;;;11.70;3.43;;;4.90;1.00;;;;;;5081135;28;20465;-61
2022/02/19 01:48:32;;;;;;;8.33;2.83;;;4.80;1.00;;;;;;5080493;28;20457;-62
2022/02/19 01:51:01;;;;;;;10.43;3.23;;;4.80;1.00;;;;;;5080089;28;20444;-60
2022/02/19 01:53:28;;;;;;;10.10;3.33;;;4.80;1.00;;;;;;5080884;28;20882;-61
2022/02/19 01:55:57;;;;;;;15.80;4.80;;;4.70;1.00;;;;;;5080785;28;20898;-59
2022/02/19 01:58:25;;;;;;;5.73;2.93;;;4.70;1.00;;;;;;5080607;28;20555;-61
2022/02/19 02:00:52;;;;;;;16.67;3.47;;;4.70;1.00;;;;;;5079736;28;20461;-60
2022/02/19 02:03:19;;;;;;;10.80;3.40;;;4.70;1.00;;;;;;5080740;28;20531;-60
2022/02/19 02:05:47;;;;;;;16.83;3.60;;;4.70;1.00;;;;;;5080446;28;20464;-58
2022/02/19 02:08:15;;;;;;;9.83;3.00;;;4.70;1.00;;;;;;5080816;28;20457;-60
2022/02/19 02:10:44;;;;;;;9.73;3.00;;;4.70;1.00;;;;;;5079529;28;20473;-61
2022/02/19 02:13:11;;;;;;;7.10;2.87;;;4.70;1.00;;;;;;5080032;28;20774;-61
2022/02/19 02:15:38;;;;;;;15.43;4.10;;;4.70;1.00;;;;;;5080487;28;20766;-62
2022/02/19 02:18:06;;;;;;;7.60;3.47;;;4.80;1.00;;;;;;5080482;28;20560;-61
2022/02/19 02:20:33;;;;;;;7.93;3.23;;;4.90;1.00;;;;;;5079789;28;20457;-62
2022/02/19 02:23:02;;;;;;;12.20;3.90;;;4.90;1.00;;;;;;5079531;28;20477;-61
2022/02/19 02:25:31;;;;;;;8.70;2.97;;;4.90;1.00;;;;;;5079948;28;20960;-60
2022/02/19 02:27:58;;;;;;;9.53;3.90;;;4.90;1.00;;;;;;5080484;28;20460;-59
2022/02/19 02:30:25;;;;;;;26.20;3.53;;;4.90;1.00;;;;;;5079917;28;20890;-61
2022/02/19 02:32:53;;;;;;;9.33;3.20;;;4.90;1.00;;;;;;5079607;28;20461;-60
2022/02/19 02:35:20;;;;;;;8.20;2.70;;;4.90;1.00;;;;;;5079845;28;20519;-60
2022/02/19 02:37:47;;;;;;;10.93;2.83;;;4.90;1.00;;;;;;5079814;28;20567;-61
2022/02/19 02:40:16;;;;;;;11.60;3.07;;;5.00;1.00;;;;;;5079622;28;20465;-61
2022/02/19 02:42:43;;;;;;;12.20;3.20;;;4.90;1.00;;;;;;5079660;28;20439;-61
2022/02/19 02:45:10;;;;;;;4.23;2.13;;;5.00;1.00;;;;;;5078172;28;20483;-61
2022/02/19 02:47:41;;;;;;;6.73;2.80;;;5.00;1.00;;;;;;5079984;28;20461;-59
2022/02/19 02:50:10;;;;;;;6.20;2.67;;;4.90;1.00;;;;;;5079974;28;20461;-60
2022/02/19 02:52:38;;;;;;;8.53;2.50;;;4.90;1.00;;;;;;5078683;28;20457;-61
2022/02/19 02:55:07;;;;;;;5.80;2.83;;;4.90;1.00;;;;;;5078412;28;20758;-58
2022/02/19 02:57:36;;;;;;;10.37;2.83;;;4.90;1.00;;;;;;5079705;28;20748;-61
2022/02/19 03:00:04;;;;;;;9.10;2.80;;;4.90;1.00;;;;;;5079086;28;20934;-60
2022/02/19 03:02:34;;;;;;;9.30;2.83;;;4.90;99.90;;;;;;5078148;28;20465;-58
2022/02/19 03:05:01;;;;;;;10.17;2.73;;;4.90;1.00;;;;;;5078486;28;20500;-60
2022/02/19 03:07:29;;;;;;;5.90;2.93;;;4.90;1.00;;;;;;5077573;28;20461;-62
2022/02/19 03:09:57;;;;;;;6.27;3.20;;;4.90;1.00;;;;;;5077041;28;20556;-61
2022/02/19 03:12:24;;;;;;;10.20;2.80;;;4.90;1.00;;;;;;5076470;28;20466;-61
2022/02/19 03:14:53;;;;;;;6.03;2.60;;;4.90;1.00;;;;;;5076967;28;20518;-61
2022/02/19 03:17:20;;;;;;;8.17;2.90;;;4.80;1.00;;;;;;5077751;28;20436;-60
2022/02/19 03:19:47;;;;;;;7.83;2.30;;;4.80;1.00;;;;;;5078486;28;20489;-61
2022/02/19 03:22:15;;;;;;;7.90;2.30;;;4.70;1.00;;;;;;5078380;28;20907;-61
2022/02/19 03:24:43;;;;;;;11.27;2.60;;;4.70;1.00;;;;;;5079276;28;20761;-61
2022/02/19 03:27:10;;;;;;;14.83;2.70;;;4.70;1.00;;;;;;5078685;28;20465;-61
2022/02/19 03:29:37;;;;;;;11.23;3.10;;;4.60;1.00;;;;;;5080019;28;20449;-61
2022/02/19 03:32:07;;;;;;;7.57;2.43;;;4.60;1.00;;;;;;5078954;28;20465;-61
2022/02/19 03:34:34;;;;;;;10.03;2.87;;;4.60;1.00;;;;;;5078190;28;20530;-61
2022/02/19 03:37:01;;;;;;;5.27;2.67;;;4.60;1.00;;;;;;5078638;28;20461;-60
2022/02/19 03:39:28;;;;;;;10.67;2.77;;;4.60;1.00;;;;;;5078870;28;20835;-61
2022/02/19 03:41:55;;;;;;;7.50;2.97;;;4.60;1.00;;;;;;5079064;28;20484;-59
2022/02/19 03:44:23;;;;;;;6.07;2.43;;;4.60;1.00;;;;;;5079297;28;20461;-63
2022/02/19 03:46:52;;;;;;;7.50;2.90;;;4.40;1.00;;;;;;5080385;28;20812;-63
2022/02/19 03:49:20;;;;;;;8.60;3.33;;;4.30;1.00;;;;;;5078432;28;20603;-63
2022/02/19 03:51:47;;;;;;;6.27;3.30;;;4.10;1.00;;;;;;5078570;28;20465;-64
2022/02/19 03:54:14;;;;;;;7.90;2.50;;;4.00;1.00;;;;;;5077989;28;20444;-65
2022/02/19 03:56:43;;;;;;;6.10;2.40;;;4.00;1.00;;;;;;5078021;28;20515;-65
2022/02/19 03:59:12;;;;;;;6.83;2.90;;;4.10;1.00;;;;;;5078099;28;20520;-62
2022/02/19 04:01:39;;;;;;;6.20;2.97;;;4.10;1.00;;;;;;5078496;28;20499;-62
2022/02/19 04:04:06;;;;;;;6.23;2.70;;;4.10;1.00;;;;;;5078127;28;20511;-63
2022/02/19 04:06:35;;;;;;;7.63;3.17;;;4.20;1.00;;;;;;5077999;28;20461;-62
2022/02/19 04:09:02;;;;;;;9.17;3.50;;;4.30;1.00;;;;;;5078028;28;20454;-63
2022/02/19 04:11:29;;;;;;;9.33;2.83;;;4.30;1.00;;;;;;5078054;28;20946;-62
2022/02/19 04:13:56;;;;;;;6.80;2.60;;;4.40;1.00;;;;;;5078197;28;20461;-62
2022/02/19 04:16:23;;;;;;;8.50;3.10;;;4.40;1.00;;;;;;5076835;28;20438;-60
2022/02/19 04:18:50;;;;;;;5.97;2.50;;;4.40;1.00;;;;;;5078102;28;20541;-61
2022/02/19 04:21:17;;;;;;;12.20;3.03;;;4.40;1.00;;;;;;5095824;28;20457;-62
2022/02/19 04:23:46;;;;;;;12.00;2.80;;;4.50;1.00;;;;;;5083318;28;20465;-62
2022/02/19 04:26:13;;;;;;;7.90;3.03;;;4.50;1.00;;;;;;5077351;28;20465;-62
2022/02/19 04:28:40;;;;;;;5.10;3.00;;;4.40;1.00;;;;;;5077966;28;20952;-62
2022/02/19 04:31:07;;;;;;;6.13;2.70;;;4.40;1.00;;;;;;5077152;28;20843;-59
2022/02/19 04:33:34;;;;;;;4.63;2.50;;;4.40;1.00;;;;;;5077919;28;20829;-60
2022/02/19 04:36:01;;;;;;;11.33;3.10;;;4.50;1.00;;;;;;5076998;28;20457;-61
2022/02/19 04:38:28;;;;;;;6.77;2.60;;;4.40;1.00;;;;;;5077416;28;20465;-61
2022/02/19 04:40:58;;;;;;;4.37;2.27;;;4.40;1.00;;;;;;5077634;28;20465;-60
2022/02/19 04:43:25;;;;;;;6.50;2.90;;;4.40;1.00;;;;;;5077649;28;20847;-62
2022/02/19 04:45:52;;;;;;;11.20;2.90;;;4.40;1.00;;;;;;5077225;28;20515;-61
2022/02/19 04:48:19;;;;;;;6.83;2.40;;;4.40;1.00;;;;;;5077709;28;20465;-61
2022/02/19 04:50:48;;;;;;;8.80;2.57;;;4.40;1.00;;;;;;5076941;28;20911;-61
2022/02/19 04:53:16;;;;;;;3.23;2.10;;;4.40;1.00;;;;;;5077349;28;20465;-61
2022/02/19 04:55:43;;;;;;;9.00;3.13;;;4.40;1.00;;;;;;5077703;28;20543;-55
2022/02/19 04:58:11;;;;;;;9.57;3.00;;;4.40;1.00;;;;;;5076603;28;20468;-60
2022/02/19 05:00:38;;;;;;;6.40;2.50;;;4.40;1.00;;;;;;5076639;28;20497;-60
2022/02/19 05:03:05;;;;;;;6.70;2.27;;;4.40;1.00;;;;;;5076871;28;20461;-61
2022/02/19 05:05:32;;;;;;;6.37;2.90;;;4.40;1.00;;;;;;5077702;28;20474;-61
2022/02/19 05:07:59;;;;;;;11.83;2.53;;;4.40;1.00;;;;;;5075448;28;20465;-60
2022/02/19 05:10:27;;;;;;;6.70;2.70;;;4.30;1.00;;;;;;5075681;28;20751;-61
2022/02/19 05:12:54;;;;;;;13.00;2.97;;;4.30;1.00;;;;;;5077044;28;20515;-61
2022/02/19 05:15:22;;;;;;;10.30;2.57;;;4.30;1.00;;;;;;5076809;28;20449;-60
2022/02/19 05:17:51;;;;;;;7.17;2.23;;;4.40;1.00;;;;;;5072909;28;20461;-60
2022/02/19 05:20:20;;;;;;;9.73;2.83;;;4.30;1.00;;;;;;5086179;28;20477;-60
2022/02/19 05:22:47;;;;;;;6.63;3.27;;;4.30;1.00;;;;;;5085038;28;20504;-60
2022/02/19 05:25:14;;;;;;;14.67;4.53;;;4.30;1.00;;;;;;5077209;28;20457;-60
2022/02/19 05:27:41;;;;;;;12.00;4.97;;;4.20;1.00;;;;;;5076734;28;20773;-60
2022/02/19 05:30:09;;;;;;;11.07;2.60;;;4.20;1.00;;;;;;5072460;28;20457;-61
2022/02/19 05:32:38;;;;;;;7.53;2.80;;;4.20;1.00;;;;;;5072717;28;20820;-60
2022/02/19 05:35:06;;;;;;;6.47;2.70;;;4.10;1.00;;;;;;5056254;28;20891;-60
2022/02/19 05:37:33;;;;;;;8.90;2.97;;;4.20;1.00;;;;;;5056519;28;20535;-61
2022/02/19 05:40:01;;;;;;;7.70;2.83;;;4.20;1.00;;;;;;5059403;28;20490;-62
2022/02/19 05:42:28;;;;;;;5.67;2.80;;;4.20;1.00;;;;;;5057814;28;20737;-60
2022/02/19 05:44:55;;;;;;;7.33;2.83;;;4.20;1.00;;;;;;5057597;28;20463;-62
2022/02/19 05:47:22;;;;;;;4.97;2.73;;;4.10;1.00;;;;;;5057081;28;20527;-60
2022/02/19 05:49:53;;;;;;;8.97;2.80;;;4.00;1.00;;;;;;5060408;28;20492;-60
2022/02/19 05:52:20;;;;;;;6.80;2.50;;;4.00;1.00;;;;;;5057285;28;20454;-60
2022/02/19 05:54:47;;;;;;;8.67;3.23;;;4.00;1.00;;;;;;5059887;28;20466;-61
2022/02/19 05:57:14;;;;;;;6.40;3.30;;;4.00;1.00;;;;;;5056705;28;20462;-61
2022/02/19 05:59:41;;;;;;;16.13;3.57;;;4.00;1.00;;;;;;5061949;28;20493;-61
2022/02/19 06:02:08;;;;;;;9.10;2.90;;;4.00;1.00;;;;;;5077076;28;20944;-60
2022/02/19 06:04:35;;;;;;;6.50;2.70;;;4.10;1.00;;;;;;5076412;28;20524;-60
2022/02/19 06:07:04;;;;;;;9.60;2.53;;;4.10;1.00;;;;;;5076445;28;20472;-61
2022/02/19 06:09:31;;;;;;;12.53;3.80;;;4.10;1.00;;;;;;5075769;28;20457;-60
2022/02/19 06:11:58;;;;;;;9.27;2.80;;;4.10;1.00;;;;;;5071002;28;20582;-60
2022/02/19 06:14:28;;;;;;;16.80;4.07;;;4.10;1.00;;;;;;5076493;28;20959;-60
2022/02/19 06:16:56;;;;;;;7.27;3.00;;;4.20;1.00;;;;;;5076847;28;20476;-60
2022/02/19 06:19:23;;;;;;;11.13;3.30;;;4.10;1.00;;;;;;5077097;28;20539;-62
2022/02/19 06:21:51;;;;;;;11.60;3.70;;;4.10;1.00;;;;;;5080114;28;20969;-60
2022/02/19 06:24:19;;;;;;;7.77;3.13;;;4.10;1.00;;;;;;5080081;28;20519;-59
2022/02/19 06:26:46;;;;;;;9.20;4.23;;;4.10;1.00;;;;;;5079354;28;20457;-60
2022/02/19 06:29:13;;;;;;;8.07;3.43;;;4.10;1.00;;;;;;5078104;28;20812;-60
2022/02/19 06:31:40;;;;;;;6.33;2.90;;;4.10;1.00;;;;;;5076638;28;20527;-60
2022/02/19 06:34:07;;;;;;;12.50;2.93;;;4.10;1.00;;;;;;5079338;28;20464;-61
2022/02/19 06:36:35;;;;;;;8.80;2.80;;;4.10;1.00;;;;;;5079788;28;20461;-60
2022/02/19 06:39:02;;;;;;;10.00;3.00;;;4.10;1.00;;;;;;5079869;28;20910;-62
2022/02/19 06:41:31;;;;;;;14.50;3.40;;;4.10;1.00;;;;;;5073537;28;20468;-61
2022/02/19 06:43:59;;;;;;;11.13;3.90;;;4.10;1.00;;;;;;5077319;28;20461;-60
2022/02/19 06:46:26;;;;;;;9.67;3.03;;;4.10;1.00;;;;;;5060315;28;20960;-61
2022/02/19 06:48:54;;;;;;;10.63;2.63;;;4.10;1.00;;;;;;5079905;28;20510;-62
2022/02/19 06:51:21;;;;;;;8.80;3.50;;;4.10;1.00;;;;;;5079374;28;20454;-58
2022/02/19 06:53:48;;;;;;;13.33;4.37;;;4.00;1.00;;;;;;5079451;28;20511;-63
2022/02/19 06:56:15;;;;;;;10.63;2.93;;;4.00;1.00;;;;;;5079982;28;20480;-59
2022/02/19 06:58:44;;;;;;;14.90;3.70;;;4.00;1.00;;;;;;5078950;28;20512;-63
2022/02/19 07:01:11;;;;;;;11.93;2.80;;;3.90;1.00;;;;;;5079410;28;20493;-59
2022/02/19 07:03:38;;;;;;;6.57;3.87;;;4.00;1.00;;;;;;5080219;28;20457;-60
2022/02/19 07:06:05;;;;;;;10.70;3.93;;;4.00;1.00;;;;;;5079877;28;20832;-60
2022/02/19 07:08:32;;;;;;;9.23;2.97;;;4.00;1.00;;;;;;5078548;28;20472;-59
2022/02/19 07:10:59;;;;;;;11.63;3.97;;;4.00;1.00;;;;;;5079498;28;20457;-60
2022/02/19 07:13:26;;;;;;;7.43;2.80;;;4.00;1.00;;;;;;5079430;28;20465;-60
2022/02/19 07:15:54;;;;;;;8.47;3.20;;;4.00;1.00;;;;;;5065802;28;20461;-60
2022/02/19 07:18:22;;;;;;;10.07;2.80;;;4.10;1.00;;;;;;5072714;28;20504;-60
2022/02/19 07:20:49;;;;;;;7.37;3.00;;;4.10;1.00;;;;;;5065441;28;20486;-60
2022/02/19 07:23:16;;;;;;;6.50;3.00;;;4.10;1.00;;;;;;5063708;28;20794;-60
2022/02/19 07:25:43;;;;;;;8.23;3.40;;;4.10;1.00;;;;;;5077952;28;20827;-60
2022/02/19 07:28:10;;;;;;;13.83;5.40;;;4.10;1.00;;;;;;5079113;28;20458;-61
2022/02/19 07:30:43;;;;;;;13.60;3.13;;;4.10;1.00;;;;;;5075851;28;20454;-59
2022/02/19 07:33:12;;;;;;;9.40;2.67;;;4.00;1.00;;;;;;5076377;28;20484;-59
2022/02/19 07:35:39;;;;;;;6.87;2.93;;;4.00;1.00;;;;;;5076844;28;20457;-60
2022/02/19 07:38:07;;;;;;;11.93;2.90;;;4.00;1.00;;;;;;5076549;28;20812;-60
2022/02/19 07:40:34;;;;;;;7.37;2.90;;;4.10;1.00;;;;;;5076123;28;20496;-59
2022/02/19 07:43:01;;;;;;;8.37;3.13;;;4.20;1.00;;;;;;5076118;28;20453;-58
2022/02/19 07:45:28;;;;;;;14.93;3.60;;;4.20;1.00;;;;;;5068996;28;20454;-60
2022/02/19 07:47:55;;;;;;;8.80;3.20;;;4.30;1.00;;;;;;5072489;28;20551;-62
2022/02/19 07:58:37;;;;;;;8.10;3.37;;;4.40;1.00;;;;;;5076066;28;20473;-59
2022/02/19 08:01:05;;;;;;;6.03;3.33;;;4.20;1.00;;;;;;5075637;28;20941;-59
2022/02/19 08:03:33;;;;;;;9.63;3.40;;;4.20;1.00;;;;;;5062202;28;20459;-59
2022/02/19 08:06:02;;;;;;;13.50;3.07;;;4.10;1.00;;;;;;5070701;28;20469;-59
2022/02/19 08:08:31;;;;;;;11.93;5.20;;;4.30;1.00;;;;;;5073461;28;20465;-59
2022/02/19 08:10:58;;;;;;;11.57;3.50;;;4.40;1.00;;;;;;5067840;28;20822;-56
2022/02/19 08:13:25;;;;;;;8.70;3.50;;;4.50;1.00;;;;;;5069676;28;20724;-55
2022/02/19 08:15:52;;;;;;;11.70;3.63;;;4.70;1.00;;;;;;5074707;28;20824;-59
2022/02/19 08:18:20;;;;;;;9.20;3.87;;;4.90;1.00;;;;;;5075849;28;20457;-59
2022/02/19 08:20:49;;;;;;;7.47;3.30;;;4.90;1.00;;;;;;5076487;28;20496;-59
2022/02/19 08:23:20;;;;;;;8.63;2.93;;;5.00;1.00;;;;;;5075402;28;20507;-59
2022/02/19 08:25:48;;;;;;;14.00;3.53;;;5.00;1.00;;;;;;5074677;28;20526;-57
2022/02/19 08:28:17;;;;;;;8.00;3.23;;;4.90;1.00;;;;;;5075194;28;20449;-58
2022/02/19 08:30:46;;;;;;;11.70;3.70;;;5.00;1.00;;;;;;5074944;28;20456;-61
2022/02/19 08:33:14;;;;;;;10.00;3.60;;;4.90;1.00;;;;;;5078270;28;20453;-57
2022/02/19 08:35:44;;;;;;;12.57;3.50;;;4.80;1.00;;;;;;5075330;28;20461;-58
2022/02/19 08:38:12;;;;;;;7.10;2.90;;;4.70;1.00;;;;;;5074079;28;20462;-59
2022/02/19 08:40:42;;;;;;;9.10;2.83;;;4.70;1.00;;;;;;5074151;28;20496;-59
2022/02/19 08:43:12;;;;;;;7.77;3.53;;;4.80;1.00;;;;;;5074143;28;20461;-60
2022/02/19 08:45:40;;;;;;;11.80;3.10;;;4.80;1.00;;;;;;5072607;28;20457;-57
2022/02/19 08:48:09;;;;;;;9.83;2.53;;;4.80;1.00;;;;;;5073965;28;20763;-61
2022/02/19 08:50:39;;;;;;;9.87;3.10;;;4.80;1.00;;;;;;5075972;28;20464;-57
2022/02/19 08:53:06;;;;;;;10.50;3.80;;;4.90;1.00;;;;;;5075505;28;20465;-57
2022/02/19 08:55:34;;;;;;;13.13;4.00;;;5.20;1.00;;;;;;5074755;28;20511;-61
2022/02/19 08:58:02;;;;;;;12.70;3.90;;;5.20;1.00;;;;;;5074539;28;20480;-60
2022/02/19 09:00:29;;;;;;;19.30;3.70;;;5.20;1.00;;;;;;5070344;28;20485;-58
2022/02/19 09:02:57;;;;;;;12.50;3.40;;;5.20;1.00;;;;;;5074601;28;20519;-60
2022/02/19 09:05:26;;;;;;;9.43;3.63;;;5.30;1.00;;;;;;5074491;28;20468;-60
2022/02/19 09:07:54;;;;;;;11.30;4.73;;;5.20;1.00;;;;;;5074870;28;20461;-58
2022/02/19 09:10:21;;;;;;;8.20;3.30;;;5.20;1.00;;;;;;5074809;28;20449;-59
2022/02/19 09:12:50;;;;;;;9.90;2.83;;;5.20;1.00;;;;;;5075136;28;20464;-59
2022/02/19 09:15:20;;;;;;;10.63;2.83;;;5.30;1.00;;;;;;5074606;28;20461;-58
2022/02/19 09:17:48;;;;;;;16.40;3.40;;;5.20;1.00;;;;;;5074778;28;20511;-61
2022/02/19 09:20:18;;;;;;;11.43;3.20;;;5.60;1.00;;;;;;5074775;28;20937;-60
2022/02/19 09:22:46;;;;;;;10.83;4.03;;;5.80;1.00;;;;;;5074367;28;20800;-59
2022/02/19 09:25:14;;;;;;;17.67;3.00;;;5.80;1.00;;;;;;5073900;28;20466;-58
2022/02/19 09:27:41;;;;;;;7.07;3.23;;;5.70;1.00;;;;;;5074609;28;20468;-59
2022/02/19 09:30:10;;;;;;;7.03;2.93;;;5.60;1.00;;;;;;5069299;28;20457;-59
2022/02/19 09:32:41;;;;;;;11.50;3.80;;;5.60;1.00;;;;;;5070711;28;20457;-59
2022/02/19 09:35:12;;;;;;;9.30;3.27;;;5.70;1.00;;;;;;5070538;28;20960;-60
2022/02/19 09:37:39;;;;;;;20.40;3.73;;;5.90;1.00;;;;;;5065757;28;20462;-57
2022/02/19 09:40:08;;;;;;;8.93;3.50;;;6.60;1.00;;;;;;5071653;28;20464;-59
2022/02/19 09:42:37;;;;;;;9.23;3.20;;;7.00;1.00;;;;;;5075372;28;20902;-59
2022/02/19 09:45:05;;;;;;;12.03;3.33;;;6.90;1.00;;;;;;5075369;28;20465;-59
2022/02/19 09:47:33;;;;;;;12.70;3.80;;;6.90;1.00;;;;;;5074736;28;20476;-60
2022/02/19 09:50:02;;;;;;;8.80;3.10;;;6.80;1.00;;;;;;5072802;28;20457;-61
2022/02/19 09:52:29;;;;;;;11.90;3.37;;;6.60;99.90;;;;;;5073635;28;20465;-58
2022/02/19 09:55:00;;;;;;;9.77;2.93;;;6.90;1.00;;;;;;5076905;28;20461;-62
2022/02/19 09:57:31;;;;;;;8.93;3.20;;;7.00;1.00;;;;;;5073452;28;20512;-60
2022/02/19 09:59:58;;;;;;;8.13;2.70;;;6.80;99.90;;;;;;5076574;28;20555;-60
2022/02/19 10:02:31;;;;;;;6.90;2.80;;;6.60;99.90;;;;;;5077747;28;20945;-61
2022/02/19 10:05:15;;;;;;;6.60;3.67;;;6.30;99.90;;;;;;5077392;28;20553;-60
2022/02/19 10:07:42;;;;;;;8.73;3.90;;;6.30;99.90;;;;;;5076286;28;20468;-61
2022/02/19 10:10:24;;;;;;;7.23;3.70;;;6.30;99.90;;;;;;5079100;28;20453;-60
2022/02/19 10:12:51;;;;;;;10.87;3.40;;;6.80;1.00;;;;;;5075427;28;20432;-61
2022/02/19 10:15:18;;;;;;;8.17;4.37;;;7.40;99.90;;;;;;5077462;28;20473;-60
2022/02/19 10:17:45;;;;;;;7.50;3.17;;;7.90;99.90;;;;;;5077066;28;20464;-58
2022/02/19 10:20:17;;;;;;;11.30;2.63;;;8.10;99.90;;;;;;5074009;28;20469;-57
2022/02/19 10:22:47;;;;;;;8.97;3.23;;;8.20;99.90;;;;;;5064182;28;20561;-57
2022/02/19 10:25:21;;;;;;;6.93;2.80;;;8.10;99.90;;;;;;5068519;28;20453;-60
2022/02/19 10:27:51;;;;;;;8.80;2.80;;;8.20;99.90;;;;;;5078808;28;20457;-60
2022/02/19 10:30:20;;;;;;;11.77;2.77;;;7.90;99.90;;;;;;5078661;28;20484;-60
2022/02/19 10:32:52;;;;;;;6.23;2.70;;;7.60;99.90;;;;;;5072517;28;20496;-59
2022/02/19 10:35:30;;;;;;;7.83;3.47;;;7.40;99.90;;;;;;5079011;28;20530;-60
2022/02/19 10:37:57;;;;;;;9.23;2.80;;;6.90;99.90;;;;;;5079459;28;20745;-61
2022/02/19 10:40:33;;;;;;;10.37;3.50;;;6.50;99.90;;;;;;5074383;28;20746;-60
2022/02/19 10:43:04;;;;;;;6.73;2.70;;;6.50;99.90;;;;;;5068683;28;20746;-61
2022/02/19 10:45:35;;;;;;;7.90;3.37;;;6.90;99.90;;;;;;5065496;28;20465;-59
2022/02/19 10:48:13;;;;;;;10.47;3.57;;;7.20;99.90;;;;;;5076605;28;20441;-60
2022/02/19 10:50:42;;;;;;;6.40;3.03;;;7.60;99.90;;;;;;5070943;28;20453;-56
2022/02/19 10:53:10;;;;;;;9.50;3.33;;;7.90;99.90;;;;;;5067748;28;20502;-58
2022/02/19 10:55:37;;;;;;;6.73;2.60;;;8.30;99.90;;;;;;5064020;28;20465;-56
2022/02/19 10:58:09;;;;;;;13.73;3.27;;;8.90;99.90;;;;;;5067747;28;20462;-58
2022/02/19 11:00:37;;;;;;;8.50;3.30;;;8.70;99.90;;;;;;5063373;28;20887;-57
2022/02/19 11:03:09;;;;;;;7.90;2.90;;;8.60;99.90;;;;;;5061180;28;20769;-58
2022/02/19 11:05:40;;;;;;;6.77;2.47;;;8.60;99.90;;;;;;5066515;28;20469;-58
2022/02/19 11:08:10;;;;;;;7.27;2.90;;;8.70;99.90;;;;;;5058964;28;20462;-57
2022/02/19 11:10:40;;;;;;;9.23;2.90;;;8.60;99.90;;;;;;5062191;28;20542;-60
2022/02/19 11:13:07;;;;;;;5.87;2.83;;;8.00;99.90;;;;;;5064855;28;20809;-61
2022/02/19 11:15:35;;;;;;;11.93;4.17;;;7.90;99.90;;;;;;5064960;28;20524;-61
2022/02/19 11:18:07;;;;;;;6.00;3.30;;;7.60;99.90;;;;;;5075800;28;20526;-59
2022/02/19 11:20:34;;;;;;;7.20;3.27;;;7.40;99.90;;;;;;5078627;28;20485;-60
2022/02/19 11:23:03;;;;;;;11.50;3.33;;;7.40;99.90;;;;;;5077895;28;20472;-58
2022/02/19 11:25:35;;;;;;;11.20;3.10;;;7.50;99.90;;;;;;5072528;28;20444;-57
2022/02/19 11:28:06;;;;;;;7.17;3.30;;;8.00;99.90;;;;;;5063809;28;20524;-59
2022/02/19 11:30:40;;;;;;;8.03;3.37;;;8.70;99.90;;;;;;5070682;28;20465;-61
2022/02/19 11:33:11;;;;;;;5.23;2.90;;;9.00;99.90;;;;;;5066973;28;20437;-59
2022/02/19 11:35:41;;;;;;;10.50;3.10;;;9.30;99.90;;;;;;5075630;28;20466;-60
2022/02/19 11:38:24;;;;;;;10.63;3.80;;;9.50;99.90;;;;;;5070301;28;20493;-61
2022/02/19 11:40:54;;;;;;;4.60;2.43;;;9.50;99.90;;;;;;5076092;28;20484;-61
2022/02/19 11:43:39;;;;;;;5.23;2.50;;;10.00;99.90;;;;;;5077576;28;20454;-61
2022/02/19 11:46:11;;;;;;;8.23;2.70;;;9.70;99.90;;;;;;5074315;28;20462;-60
2022/02/19 11:48:38;;;;;;;7.60;2.40;;;9.30;99.90;;;;;;5074699;28;20831;-61
2022/02/19 11:51:15;;;;;;;12.43;3.47;;;8.90;99.90;;;;;;5067061;28;20459;-61
2022/02/19 11:53:46;;;;;;;6.03;2.87;;;8.80;99.90;;;;;;5073124;28;20489;-60
2022/02/19 11:56:28;;;;;;;6.43;2.43;;;9.20;99.90;;;;;;5076445;28;20505;-61
2022/02/19 11:58:58;;;;;;;8.60;2.83;;;9.10;99.90;;;;;;5077510;28;20481;-59
2022/02/19 12:01:26;;;;;;;5.60;2.40;;;9.30;99.90;;;;;;5069843;28;20530;-58
2022/02/19 12:04:13;;;;;;;5.47;2.57;;;9.20;99.90;;;;;;5063683;28;20466;-60
2022/02/19 12:06:47;;;;;;;11.57;3.10;;;8.60;99.90;;;;;;5058625;28;20808;-54
2022/02/19 12:09:16;;;;;;;6.27;2.50;;;8.60;99.90;;;;;;5071623;28;20457;-58
2022/02/19 12:12:07;;;;;;;7.67;3.03;;;8.50;99.90;;;;;;5061378;28;20458;-60
2022/02/19 12:15:01;;;;;;;10.30;4.00;;;8.40;99.90;;;;;;5073056;28;20552;-60
2022/02/19 12:17:48;;;;;;;5.07;2.47;;;8.70;99.90;;;;;;5075146;28;20446;-55
2022/02/19 12:20:29;;;;;;;8.33;2.60;;;8.40;99.90;;;;;;5075835;28;20468;-59
2022/02/19 12:23:01;;;;;;;6.70;2.33;;;8.00;99.90;;;;;;5070451;28;20544;-57
2022/02/19 12:26:03;;;;;;;6.10;2.73;;;7.90;99.90;;;;;;5076751;28;20861;-57
2022/02/19 12:28:36;;;;;;;6.93;4.37;;;7.90;99.90;;;;;;5076372;28;20780;-59
2022/02/19 12:31:20;;;;;;;8.80;3.63;;;7.80;99.90;;;;;;5075395;28;20527;-60
2022/02/19 12:33:48;;;;;;;8.97;4.10;;;7.90;99.90;;;;;;5058768;28;20844;-58
2022/02/19 12:36:22;;;;;;;4.80;2.70;;;7.90;99.90;;;;;;5065302;28;20519;-59
2022/02/19 12:38:52;;;;;;;8.33;3.40;;;8.40;99.90;;;;;;5077665;28;20461;-57
2022/02/19 12:41:21;;;;;;;6.90;2.53;;;8.80;99.90;;;;;;5069084;28;20493;-59
2022/02/19 12:44:07;;;;;;;6.80;2.90;;;8.90;99.90;;;;;;5075153;28;20465;-58
2022/02/19 12:46:37;;;;;;;6.47;2.50;;;8.30;99.90;;;;;;5074081;28;20461;-59
2022/02/19 12:49:08;;;;;;;5.90;3.27;;;7.90;99.90;;;;;;5075759;28;20883;-59
2022/02/19 12:51:38;;;;;;;5.30;2.97;;;7.70;99.90;;;;;;5076126;28;20456;-59
2022/02/19 12:54:06;;;;;;;5.80;2.77;;;7.90;99.90;;;;;;5072596;28;20896;-59
2022/02/19 12:56:41;;;;;;;6.43;2.70;;;7.90;99.90;;;;;;5076202;28;20559;-60
2022/02/19 12:59:12;;;;;;;6.73;2.90;;;8.00;99.90;;;;;;5070946;28;20488;-56
2022/02/19 13:01:39;;;;;;;5.30;3.10;;;8.10;99.90;;;;;;5076143;28;20489;-56
2022/02/19 13:04:06;;;;;;;9.80;2.90;;;8.60;99.90;;;;;;5077541;28;20462;-57
2022/02/19 13:06:47;;;;;;;7.00;3.07;;;8.50;99.90;;;;;;5094998;28;20511;-58
2022/02/19 13:09:20;;;;;;;8.43;3.00;;;8.70;99.90;;;;;;5076872;28;20856;-54
2022/02/19 13:11:48;;;;;;;5.30;2.60;;;8.70;99.90;;;;;;5074021;28;20881;-58
2022/02/19 13:14:20;;;;;;;5.73;2.83;;;9.20;99.90;;;;;;5069161;28;20522;-56
2022/02/19 13:17:01;;;;;;;9.73;3.20;;;9.20;99.90;;;;;;5060522;28;20522;-59